Time;durP1;ratioP1;P1;durP2;ratioP2;P2;SDS_P1;SDS_P2;PMS_P1;PMS_P2;Temp;Humidity;BMP_temperature;BMP_pressure;BME280_temperature;BME280_humidity;BME280_pressure;Samples;Min_cycle;Max_cycle;Signal;HPM_P1;HPM_P2
2023/11/23 00:01:43;;;;;;;5.97;5.47;;;;;;;;;;5038432;28;20398;-79
2023/11/23 00:04:09;;;;;;;6.53;5.93;;;;;;;;;;5038926;28;20768;-81
2023/11/23 00:06:35;;;;;;;6.13;5.53;;;;;;;;;;5040106;28;20422;-81
2023/11/23 00:09:01;;;;;;;5.40;5.00;;;;;;;;;;5039276;28;20378;-81
2023/11/23 00:11:26;;;;;;;5.00;4.60;;;;;;;;;;5035816;28;20394;-81
2023/11/23 00:13:52;;;;;;;5.20;4.80;;;;;;;;;;5038484;28;20383;-81
2023/11/23 00:16:18;;;;;;;4.85;4.45;;;;;;;;;;5039182;28;20863;-81
2023/11/23 00:18:44;;;;;;;5.40;5.00;;;;;;;;;;5038472;28;20470;-80
2023/11/23 00:21:10;;;;;;;4.60;4.20;;;;;;;;;;5038770;28;20466;-81
2023/11/23 00:23:36;;;;;;;5.30;4.90;;;;;;;;;;5039997;28;20771;-81
2023/11/23 00:26:03;;;;;;;5.13;4.72;;;;;;;;;;5037768;28;20450;-81
2023/11/23 00:28:31;;;;;;;5.45;4.63;;;;;;;;;;5038481;28;20379;-81
2023/11/23 00:30:58;;;;;;;5.80;5.30;;;;;;;;;;5038157;28;20932;-81
2023/11/23 00:33:24;;;;;;;5.38;4.95;;;;;;;;;;5029931;28;20382;-81
2023/11/23 00:35:50;;;;;;;5.45;5.05;;;;;;;;;;5038289;28;20776;-81
2023/11/23 00:38:18;;;;;;;6.50;5.90;;;;;;;;;;5039513;28;20391;-81
2023/11/23 00:40:44;;;;;;;6.80;6.23;;;;;;;;;;5038879;28;20422;-81
2023/11/23 00:43:10;;;;;;;7.70;7.07;;;;;;;;;;5038610;28;20379;-81
2023/11/23 00:45:37;;;;;;;6.30;5.80;;;;;;;;;;5038300;28;20414;-81
2023/11/23 00:48:03;;;;;;;6.40;5.80;;;;;;;;;;5037213;28;20710;-81
2023/11/23 00:50:29;;;;;;;6.05;5.55;;;;;;;;;;5038158;28;20927;-81
2023/11/23 00:52:55;;;;;;;6.00;5.50;;;;;;;;;;5031672;28;20475;-81
2023/11/23 00:55:21;;;;;;;6.50;5.90;;;;;;;;;;5037761;28;20387;-81
2023/11/23 00:57:47;;;;;;;6.53;6.03;;;;;;;;;;5037911;28;20398;-81
2023/11/23 01:00:16;;;;;;;6.63;6.03;;;;;;;;;;5036551;28;20387;-81
2023/11/23 01:02:43;;;;;;;6.50;6.00;;;;;;;;;;5037814;28;20406;-81
2023/11/23 01:05:11;;;;;;;6.32;5.82;;;;;;;;;;5038370;28;20790;-81
2023/11/23 01:07:38;;;;;;;6.75;6.25;;;;;;;;;;5038597;28;20395;-81
2023/11/23 01:10:04;;;;;;;6.60;6.10;;;;;;;;;;5038415;28;20718;-81
2023/11/23 01:12:30;;;;;;;5.93;5.43;;;;;;;;;;5007511;28;20404;-81
2023/11/23 01:14:56;;;;;;;6.53;6.03;;;;;;;;;;5033000;28;20940;-81
2023/11/23 01:17:22;;;;;;;5.90;5.50;;;;;;;;;;5039047;28;20395;-81
2023/11/23 01:19:48;;;;;;;6.20;5.70;;;;;;;;;;5039012;28;20740;-81
2023/11/23 01:22:14;;;;;;;6.25;5.68;;;;;;;;;;5038573;28;20393;-81
2023/11/23 01:24:40;;;;;;;10.90;8.55;;;;;;;;;;5038342;28;20462;-81
2023/11/23 01:27:06;;;;;;;6.18;5.68;;;;;;;;;;5037717;28;20399;-81
2023/11/23 01:29:32;;;;;;;8.70;7.53;;;;;;;;;;5038838;28;20390;-81
2023/11/23 01:31:58;;;;;;;9.07;8.00;;;;;;;;;;5038496;28;20403;-81
2023/11/23 01:34:24;;;;;;;7.75;6.95;;;;;;;;;;5024468;28;20473;-81
2023/11/23 01:36:50;;;;;;;9.02;8.05;;;;;;;;;;5037946;28;20387;-81
2023/11/23 01:39:16;;;;;;;9.00;7.20;;;;;;;;;;5038363;28;20399;-81
2023/11/23 01:41:43;;;;;;;8.15;7.35;;;;;;;;;;5037513;28;20742;-81
2023/11/23 01:44:11;;;;;;;6.90;6.20;;;;;;;;;;5037682;28;20395;-81
2023/11/23 01:46:37;;;;;;;11.57;9.03;;;;;;;;;;5031534;28;20428;-81
2023/11/23 01:49:03;;;;;;;16.23;11.18;;;;;;;;;;5033250;28;20405;-81
2023/11/23 01:51:30;;;;;;;48.65;19.67;;;;;;;;;;5038037;28;20741;-81
2023/11/23 01:53:56;;;;;;;6.30;5.80;;;;;;;;;;5038008;28;20383;-81
2023/11/23 01:56:23;;;;;;;9.27;8.43;;;;;;;;;;5038409;28;20379;-81
2023/11/23 01:58:49;;;;;;;9.93;9.02;;;;;;;;;;5041311;28;20402;-81
2023/11/23 02:01:15;;;;;;;6.05;5.50;;;;;;;;;;5041620;28;20391;-81
2023/11/23 02:03:41;;;;;;;5.53;5.03;;;;;;;;;;5041297;28;20449;-81
2023/11/23 02:06:07;;;;;;;5.60;5.20;;;;;;;;;;5041368;28;20513;-81
2023/11/23 02:08:34;;;;;;;5.50;5.10;;;;;;;;;;5041918;28;20417;-81
2023/11/23 02:11:00;;;;;;;6.10;5.60;;;;;;;;;;5041379;28;20402;-81
2023/11/23 02:13:26;;;;;;;5.60;5.10;;;;;;;;;;5040476;28;20398;-81
2023/11/23 02:15:52;;;;;;;5.40;5.00;;;;;;;;;;5040984;28;20422;-81
2023/11/23 02:18:18;;;;;;;5.53;5.10;;;;;;;;;;5041650;28;20392;-81
2023/11/23 02:20:47;;;;;;;5.67;5.20;;;;;;;;;;5039426;28;20766;-81
2023/11/23 02:23:13;;;;;;;5.65;5.15;;;;;;;;;;5041198;28;20931;-81
2023/11/23 02:25:39;;;;;;;6.00;5.50;;;;;;;;;;5041348;28;20415;-81
2023/11/23 02:28:06;;;;;;;5.72;5.32;;;;;;;;;;5040922;28;20411;-81
2023/11/23 02:30:33;;;;;;;5.47;5.07;;;;;;;;;;5040151;28;20385;-81
2023/11/23 02:33:01;;;;;;;5.30;4.90;;;;;;;;;;5041392;28;20387;-81
2023/11/23 02:35:27;;;;;;;5.53;5.10;;;;;;;;;;5040406;28;20418;-81
2023/11/23 02:37:53;;;;;;;5.60;5.10;;;;;;;;;;5041321;28;20449;-81
2023/11/23 02:40:19;;;;;;;5.95;5.45;;;;;;;;;;5040833;28;20395;-81
2023/11/23 02:42:45;;;;;;;6.78;6.18;;;;;;;;;;5041679;28;20391;-81
2023/11/23 02:45:11;;;;;;;7.07;6.43;;;;;;;;;;5040761;28;20433;-81
2023/11/23 02:47:37;;;;;;;7.30;6.70;;;;;;;;;;5031729;28;20411;-81
2023/11/23 02:50:04;;;;;;;6.20;5.70;;;;;;;;;;5041239;28;20414;-81
2023/11/23 02:52:30;;;;;;;7.05;6.45;;;;;;;;;;5040790;28;20383;-81
2023/11/23 02:54:56;;;;;;;6.57;6.07;;;;;;;;;;5040957;28;20406;-81
2023/11/23 02:57:22;;;;;;;7.10;6.50;;;;;;;;;;5040177;28;21120;-81
2023/11/23 02:59:51;;;;;;;7.00;6.40;;;;;;;;;;5040830;28;20395;-81
2023/11/23 03:02:17;;;;;;;6.50;6.00;;;;;;;;;;5040992;28;20390;-81
2023/11/23 03:04:44;;;;;;;6.17;5.67;;;;;;;;;;5041651;28;20379;-81
2023/11/23 03:07:09;;;;;;;6.28;5.78;;;;;;;;;;5030799;28;20393;-80
2023/11/23 03:09:35;;;;;;;7.28;6.57;;;;;;;;;;5034744;28;20455;-79
2023/11/23 03:12:01;;;;;;;5.47;5.03;;;;;;;;;;5040996;28;20367;-79
2023/11/23 03:14:27;;;;;;;8.35;7.55;;;;;;;;;;5029759;28;20743;-79
2023/11/23 03:16:53;;;;;;;8.50;6.85;;;;;;;;;;5037319;28;20386;-80
2023/11/23 03:19:19;;;;;;;7.60;6.80;;;;;;;;;;5041048;28;20879;-79
2023/11/23 03:21:45;;;;;;;5.55;5.05;;;;;;;;;;5040484;28;20399;-80
2023/11/23 03:24:11;;;;;;;6.03;5.53;;;;;;;;;;5041775;28;20469;-80
2023/11/23 03:26:37;;;;;;;5.57;5.07;;;;;;;;;;5040899;28;20450;-80
2023/11/23 03:29:03;;;;;;;5.22;4.82;;;;;;;;;;5040921;28;20392;-79
2023/11/23 03:31:29;;;;;;;5.28;4.88;;;;;;;;;;5039364;28;20762;-81
2023/11/23 03:33:55;;;;;;;5.38;4.97;;;;;;;;;;5041449;28;20517;-82
2023/11/23 03:36:21;;;;;;;5.40;5.00;;;;;;;;;;5040462;28;20725;-79
2023/11/23 03:38:47;;;;;;;5.13;4.72;;;;;;;;;;5040509;28;20395;-79
2023/11/23 03:41:13;;;;;;;5.25;4.85;;;;;;;;;;5039767;28;20402;-79
2023/11/23 03:43:39;;;;;;;5.80;5.30;;;;;;;;;;5039919;28;20841;-80
2023/11/23 03:46:05;;;;;;;5.60;5.18;;;;;;;;;;5038626;28;20518;-79
2023/11/23 03:48:31;;;;;;;5.27;4.87;;;;;;;;;;5034127;28;20407;-79
2023/11/23 03:50:57;;;;;;;5.10;4.70;;;;;;;;;;5040585;28;20406;-80
2023/11/23 03:53:23;;;;;;;5.53;5.07;;;;;;;;;;5039929;28;20379;-80
2023/11/23 03:55:49;;;;;;;5.75;5.35;;;;;;;;;;5026150;28;20390;-80
2023/11/23 03:58:15;;;;;;;5.45;5.05;;;;;;;;;;5039778;28;20388;-80
2023/11/23 04:00:42;;;;;;;5.00;4.60;;;;;;;;;;5040429;28;20475;-79
2023/11/23 04:03:08;;;;;;;5.00;4.60;;;;;;;;;;5040636;28;20514;-79
2023/11/23 04:05:34;;;;;;;5.35;4.88;;;;;;;;;;5040076;28;20904;-79
2023/11/23 04:08:00;;;;;;;5.50;5.00;;;;;;;;;;5040110;28;20395;-79
2023/11/23 04:10:26;;;;;;;5.15;4.75;;;;;;;;;;5039748;28;20437;-80
2023/11/23 04:12:52;;;;;;;5.32;4.93;;;;;;;;;;5040264;28;20387;-79
2023/11/23 04:15:18;;;;;;;5.88;5.38;;;;;;;;;;5039917;28;20391;-79
2023/11/23 04:17:44;;;;;;;5.35;4.95;;;;;;;;;;5038211;28;20383;-79
2023/11/23 04:20:10;;;;;;;5.40;4.95;;;;;;;;;;5039322;28;20879;-80
2023/11/23 04:22:36;;;;;;;5.00;4.60;;;;;;;;;;5038415;28;20422;-80
2023/11/23 04:25:02;;;;;;;5.03;4.63;;;;;;;;;;5039253;28;20433;-79
2023/11/23 04:27:28;;;;;;;5.28;4.88;;;;;;;;;;5039666;28;20396;-79
2023/11/23 04:29:54;;;;;;;5.43;5.03;;;;;;;;;;5040203;28;20394;-79
2023/11/23 04:32:21;;;;;;;5.38;4.97;;;;;;;;;;5040141;28;20840;-79
2023/11/23 04:34:47;;;;;;;5.00;4.60;;;;;;;;;;5039768;28;20728;-79
2023/11/23 04:37:13;;;;;;;4.95;4.55;;;;;;;;;;5039349;28;20745;-80
2023/11/23 04:39:39;;;;;;;4.97;4.57;;;;;;;;;;5039625;28;20388;-79
2023/11/23 04:42:05;;;;;;;5.05;4.65;;;;;;;;;;5039710;28;20431;-80
2023/11/23 04:44:31;;;;;;;5.72;5.22;;;;;;;;;;5039165;28;20438;-80
2023/11/23 04:46:57;;;;;;;5.47;4.97;;;;;;;;;;5030223;28;20416;-80
2023/11/23 04:49:23;;;;;;;5.68;5.28;;;;;;;;;;5039171;28;20397;-80
2023/11/23 04:51:49;;;;;;;5.55;5.15;;;;;;;;;;5039089;28;20383;-80
2023/11/23 04:54:15;;;;;;;5.70;5.18;;;;;;;;;;5038436;28;20423;-80
2023/11/23 04:56:41;;;;;;;5.72;5.28;;;;;;;;;;5039786;28;20924;-79
2023/11/23 04:59:07;;;;;;;5.20;4.80;;;;;;;;;;5039224;28;20415;-80
2023/11/23 05:01:33;;;;;;;5.20;4.80;;;;;;;;;;5038790;28;20383;-79
2023/11/23 05:03:59;;;;;;;5.20;4.80;;;;;;;;;;5038607;28;20391;-80
2023/11/23 05:06:25;;;;;;;4.97;4.57;;;;;;;;;;5037557;28;20430;-79
2023/11/23 05:08:51;;;;;;;4.40;4.10;;;;;;;;;;5037492;28;20387;-79
2023/11/23 05:11:17;;;;;;;4.63;4.22;;;;;;;;;;5034678;28;20486;-80
2023/11/23 05:13:43;;;;;;;4.70;4.30;;;;;;;;;;5038186;28;20387;-79
2023/11/23 05:16:09;;;;;;;4.53;4.22;;;;;;;;;;5037833;28;20395;-80
2023/11/23 05:18:35;;;;;;;4.68;4.28;;;;;;;;;;5037129;28;20745;-80
2023/11/23 05:21:03;;;;;;;4.22;3.92;;;;;;;;;;5038491;28;20391;-79
2023/11/23 05:23:29;;;;;;;4.30;4.00;;;;;;;;;;5038632;28;20398;-79
2023/11/23 05:25:56;;;;;;;4.10;3.80;;;;;;;;;;5038769;28;20407;-79
2023/11/23 05:28:22;;;;;;;4.18;3.88;;;;;;;;;;5039047;28;20418;-79
2023/11/23 05:30:48;;;;;;;4.25;3.95;;;;;;;;;;5037869;28;20372;-80
2023/11/23 05:33:14;;;;;;;4.30;4.00;;;;;;;;;;5040420;28;20398;-80
2023/11/23 05:35:40;;;;;;;4.15;3.85;;;;;;;;;;5041770;28;20414;-80
2023/11/23 05:38:06;;;;;;;4.20;3.90;;;;;;;;;;5041834;28;20396;-80
2023/11/23 05:40:32;;;;;;;4.25;3.92;;;;;;;;;;5042223;28;20385;-79
2023/11/23 05:42:58;;;;;;;4.97;4.32;;;;;;;;;;5041962;28;20387;-79
2023/11/23 05:45:24;;;;;;;4.83;4.43;;;;;;;;;;5041843;28;20430;-79
2023/11/23 05:47:51;;;;;;;4.38;4.07;;;;;;;;;;5033275;28;20462;-80
2023/11/23 05:50:17;;;;;;;4.53;4.13;;;;;;;;;;5042330;28;20375;-79
2023/11/23 05:52:43;;;;;;;5.07;4.68;;;;;;;;;;5040816;28;20406;-80
2023/11/23 05:55:09;;;;;;;5.07;4.68;;;;;;;;;;5041550;28;20426;-79
2023/11/23 05:57:35;;;;;;;4.90;4.50;;;;;;;;;;5041161;28;21099;-79
2023/11/23 06:00:04;;;;;;;4.45;4.10;;;;;;;;;;5036070;28;20539;-80
2023/11/23 06:02:30;;;;;;;4.85;4.45;;;;;;;;;;5041460;28;20465;-80
2023/11/23 06:04:56;;;;;;;4.53;4.22;;;;;;;;;;5040753;28;20411;-79
2023/11/23 06:07:22;;;;;;;4.13;3.70;;;;;;;;;;5041930;28;20395;-81
2023/11/23 06:09:51;;;;;;;4.13;3.83;;;;;;;;;;5041155;28;20495;-80
2023/11/23 06:12:17;;;;;;;5.80;4.40;;;;;;;;;;5031956;28;20389;-80
2023/11/23 06:14:43;;;;;;;4.90;4.50;;;;;;;;;;5036702;28;20390;-80
2023/11/23 06:17:10;;;;;;;4.60;4.20;;;;;;;;;;5039839;28;20387;-80
2023/11/23 06:19:39;;;;;;;4.03;3.65;;;;;;;;;;5037103;28;20394;-80
2023/11/23 06:22:05;;;;;;;4.57;4.20;;;;;;;;;;5040506;28;20394;-80
2023/11/23 06:24:32;;;;;;;4.40;4.00;;;;;;;;;;5041518;28;20390;-80
2023/11/23 06:26:58;;;;;;;4.60;4.20;;;;;;;;;;5038998;28;20471;-80
2023/11/23 06:29:24;;;;;;;4.57;4.18;;;;;;;;;;5040603;28;20387;-80
2023/11/23 06:31:50;;;;;;;4.50;4.10;;;;;;;;;;5040138;28;20390;-80
2023/11/23 06:34:16;;;;;;;4.13;3.83;;;;;;;;;;5041831;28;20782;-80
2023/11/23 06:36:42;;;;;;;4.20;3.88;;;;;;;;;;5039633;28;20390;-80
2023/11/23 06:39:11;;;;;;;4.35;4.05;;;;;;;;;;5040980;28;20386;-80
2023/11/23 06:41:37;;;;;;;4.47;4.07;;;;;;;;;;5041436;28;20458;-80
2023/11/23 06:44:03;;;;;;;4.40;4.10;;;;;;;;;;5040327;28;20398;-80
2023/11/23 06:46:29;;;;;;;4.20;3.80;;;;;;;;;;5034991;28;20424;-80
2023/11/23 06:48:56;;;;;;;4.07;3.78;;;;;;;;;;5036733;28;20392;-80
2023/11/23 06:51:22;;;;;;;4.55;4.15;;;;;;;;;;5037740;28;20399;-80
2023/11/23 06:53:48;;;;;;;4.38;4.00;;;;;;;;;;5040223;28;20421;-80
2023/11/23 06:56:15;;;;;;;4.27;3.80;;;;;;;;;;5039472;28;20383;-81
2023/11/23 06:58:41;;;;;;;4.70;4.30;;;;;;;;;;5038325;28;20453;-82
2023/11/23 07:01:08;;;;;;;5.70;5.20;;;;;;;;;;5040115;28;20790;-81
2023/11/23 07:03:37;;;;;;;5.60;5.10;;;;;;;;;;5038662;28;20383;-81
2023/11/23 07:06:04;;;;;;;5.22;4.72;;;;;;;;;;5039128;28;20514;-81
2023/11/23 07:08:30;;;;;;;5.18;4.78;;;;;;;;;;5035034;28;20387;-81
2023/11/23 07:10:57;;;;;;;5.80;5.30;;;;;;;;;;5038925;28;20405;-82
2023/11/23 07:13:23;;;;;;;5.25;4.85;;;;;;;;;;5038355;28;20433;-82
2023/11/23 07:15:49;;;;;;;5.68;5.22;;;;;;;;;;5039169;28;20383;-81
2023/11/23 07:18:15;;;;;;;6.15;5.55;;;;;;;;;;5039156;28;20411;-81
2023/11/23 07:20:42;;;;;;;5.10;4.70;;;;;;;;;;5038643;28;20391;-82
2023/11/23 07:23:09;;;;;;;5.65;5.18;;;;;;;;;;5038284;28;20845;-81
2023/11/23 07:25:41;;;;;;;6.35;5.57;;;;;;;;;;5038984;28;20745;-81
2023/11/23 07:28:09;;;;;;;5.80;5.20;;;;;;;;;;5040356;28;20395;-82
2023/11/23 07:30:36;;;;;;;6.35;5.75;;;;;;;;;;5039644;28;20439;-81
2023/11/23 07:33:02;;;;;;;6.45;5.78;;;;;;;;;;5040564;28;20379;-82
2023/11/23 07:35:28;;;;;;;6.43;5.73;;;;;;;;;;5039935;28;20417;-82
2023/11/23 07:37:55;;;;;;;6.90;5.95;;;;;;;;;;5041497;28;20930;-82
2023/11/23 07:40:20;;;;;;;6.63;5.90;;;;;;;;;;5040185;28;20391;-82
2023/11/23 07:42:46;;;;;;;6.10;5.50;;;;;;;;;;5040316;28;20417;-82
2023/11/23 07:45:13;;;;;;;5.95;5.45;;;;;;;;;;5040661;28;20885;-79
2023/11/23 07:47:41;;;;;;;6.60;5.40;;;;;;;;;;5035125;28;20399;-79
2023/11/23 07:50:07;;;;;;;8.37;7.40;;;;;;;;;;5040382;28;20388;-81
2023/11/23 07:52:33;;;;;;;6.38;5.88;;;;;;;;;;5040551;28;20452;-81
2023/11/23 07:54:59;;;;;;;6.10;5.50;;;;;;;;;;5040434;28;20415;-81
2023/11/23 07:57:25;;;;;;;6.38;5.88;;;;;;;;;;5041176;28;20687;-81
2023/11/23 07:59:56;;;;;;;6.20;5.70;;;;;;;;;;5040859;28;20447;-79
2023/11/23 08:02:23;;;;;;;6.50;6.00;;;;;;;;;;5041579;28;20388;-79
2023/11/23 08:04:49;;;;;;;7.97;5.82;;;;;;;;;;5040474;28;20391;-79
2023/11/23 08:07:16;;;;;;;24.52;10.93;;;;;;;;;;5040322;28;20476;-79
2023/11/23 08:09:42;;;;;;;7.20;6.60;;;;;;;;;;5040226;28;20402;-82
2023/11/23 08:12:10;;;;;;;7.97;7.00;;;;;;;;;;5040545;28;20398;-81
2023/11/23 08:14:37;;;;;;;8.02;7.15;;;;;;;;;;5040995;28;20383;-81
2023/11/23 08:17:05;;;;;;;7.50;6.80;;;;;;;;;;5040329;28;20394;-82
2023/11/23 08:19:32;;;;;;;7.28;6.53;;;;;;;;;;5041114;28;20425;-81
2023/11/23 08:21:58;;;;;;;7.63;6.82;;;;;;;;;;5040888;28;20394;-81
2023/11/23 08:24:25;;;;;;;7.75;7.05;;;;;;;;;;5038207;28;20470;-79
2023/11/23 08:26:52;;;;;;;7.15;6.45;;;;;;;;;;5038949;28;20406;-79
2023/11/23 08:29:18;;;;;;;8.07;7.30;;;;;;;;;;5040685;28;20394;-81
2023/11/23 08:31:45;;;;;;;6.90;6.30;;;;;;;;;;5041228;28;20383;-79
2023/11/23 08:34:11;;;;;;;6.60;6.10;;;;;;;;;;5041927;28;20389;-79
2023/11/23 08:36:41;;;;;;;6.70;6.13;;;;;;;;;;5042187;28;20418;-80
2023/11/23 08:39:11;;;;;;;6.90;6.30;;;;;;;;;;5041423;28;20454;-79
2023/11/23 08:41:38;;;;;;;6.97;6.38;;;;;;;;;;5041627;28;20394;-79
2023/11/23 08:44:04;;;;;;;7.35;6.75;;;;;;;;;;5040783;28;20395;-80
2023/11/23 08:46:31;;;;;;;8.40;7.53;;;;;;;;;;5033464;28;20431;-79
2023/11/23 08:48:57;;;;;;;8.77;7.97;;;;;;;;;;5039134;28;20849;-79
2023/11/23 08:51:23;;;;;;;8.45;7.75;;;;;;;;;;5044373;28;20441;-80
2023/11/23 08:53:49;;;;;;;9.27;8.48;;;;;;;;;;5043040;28;20379;-79
2023/11/23 08:56:15;;;;;;;9.40;8.50;;;;;;;;;;5042689;28;20388;-79
2023/11/23 08:58:41;;;;;;;10.18;9.18;;;;;;;;;;5042457;28;20387;-80
2023/11/23 09:01:08;;;;;;;9.02;8.13;;;;;;;;;;5040935;28;20398;-79
2023/11/23 09:03:34;;;;;;;9.20;8.30;;;;;;;;;;5022550;28;20745;-79
2023/11/23 09:06:00;;;;;;;8.95;8.15;;;;;;;;;;5042175;28;20482;-80
2023/11/23 09:08:26;;;;;;;8.48;7.68;;;;;;;;;;5039210;28;20375;-79
2023/11/23 09:10:54;;;;;;;7.65;7.03;;;;;;;;;;5029326;28;20429;-79
2023/11/23 09:13:20;;;;;;;7.85;7.15;;;;;;;;;;5034830;28;20387;-81
2023/11/23 09:15:46;;;;;;;7.65;6.95;;;;;;;;;;5038434;28;20378;-80
2023/11/23 09:18:13;;;;;;;8.00;7.20;;;;;;;;;;5037666;28;20387;-80
2023/11/23 09:20:38;;;;;;;7.38;6.78;;;;;;;;;;5037651;28;20442;-80
2023/11/23 09:23:05;;;;;;;7.60;6.90;;;;;;;;;;5037348;28;20390;-81
2023/11/23 09:25:33;;;;;;;7.47;6.88;;;;;;;;;;5037997;28;20402;-80
2023/11/23 09:28:00;;;;;;;7.70;7.05;;;;;;;;;;5035063;28;20466;-80
2023/11/23 09:30:26;;;;;;;8.45;7.72;;;;;;;;;;5035782;28;20449;-80
2023/11/23 09:32:52;;;;;;;8.00;7.30;;;;;;;;;;5038606;28;20413;-81
2023/11/23 09:35:19;;;;;;;8.02;7.32;;;;;;;;;;5038610;28;20478;-80
2023/11/23 09:37:45;;;;;;;8.30;7.60;;;;;;;;;;5039145;28;20458;-79
2023/11/23 09:40:17;;;;;;;7.32;6.72;;;;;;;;;;5040513;28;20398;-79
2023/11/23 09:42:43;;;;;;;8.70;8.00;;;;;;;;;;5041193;28;20499;-79
2023/11/23 09:45:15;;;;;;;7.65;6.95;;;;;;;;;;5041948;28;20387;-80
2023/11/23 09:47:41;;;;;;;7.22;6.55;;;;;;;;;;5032244;28;20860;-81
2023/11/23 09:50:09;;;;;;;7.43;6.82;;;;;;;;;;5039081;28;20390;-82
2023/11/23 09:52:36;;;;;;;7.32;6.72;;;;;;;;;;5040428;28;20379;-82
2023/11/23 09:55:04;;;;;;;7.57;6.97;;;;;;;;;;5040961;28;21167;-83
2023/11/23 09:57:30;;;;;;;7.38;6.78;;;;;;;;;;5040357;28;20384;-81
2023/11/23 09:59:56;;;;;;;7.30;6.70;;;;;;;;;;5040120;28;20736;-82
2023/11/23 10:02:23;;;;;;;6.90;6.38;;;;;;;;;;5041251;28;20890;-82
2023/11/23 10:04:50;;;;;;;7.22;6.63;;;;;;;;;;5041385;28;20411;-82
2023/11/23 10:07:20;;;;;;;7.40;6.80;;;;;;;;;;5040567;28;20975;-82
2023/11/23 10:09:46;;;;;;;7.47;6.88;;;;;;;;;;5040315;28;20450;-79
2023/11/23 10:12:16;;;;;;;6.90;6.40;;;;;;;;;;5040841;28;20379;-81
2023/11/23 10:14:42;;;;;;;7.45;6.85;;;;;;;;;;5040490;28;20394;-82
2023/11/23 10:17:08;;;;;;;7.70;7.10;;;;;;;;;;5041178;28;20380;-79
2023/11/23 10:19:34;;;;;;;7.28;6.57;;;;;;;;;;5040710;28;20389;-82
2023/11/23 10:22:03;;;;;;;7.40;6.80;;;;;;;;;;5042907;28;20398;-79
2023/11/23 10:24:29;;;;;;;7.40;6.82;;;;;;;;;;5044432;28;20433;-80
2023/11/23 10:26:55;;;;;;;6.65;6.15;;;;;;;;;;5043706;28;20419;-80
2023/11/23 10:29:28;;;;;;;7.00;6.40;;;;;;;;;;5041922;28;20912;-80
2023/11/23 10:32:00;;;;;;;6.80;6.30;;;;;;;;;;5041096;28;20444;-80
2023/11/23 10:34:28;;;;;;;7.18;6.57;;;;;;;;;;5043274;28;20394;-82
2023/11/23 10:36:54;;;;;;;6.80;6.20;;;;;;;;;;5042389;28;20397;-82
2023/11/23 10:39:22;;;;;;;6.90;6.40;;;;;;;;;;5043375;28;20753;-81
2023/11/23 10:41:49;;;;;;;6.57;6.00;;;;;;;;;;5043268;28;20414;-81
2023/11/23 10:44:15;;;;;;;6.50;6.00;;;;;;;;;;5042635;28;20720;-80
2023/11/23 10:46:42;;;;;;;7.03;6.43;;;;;;;;;;5035904;28;20424;-81
2023/11/23 10:49:09;;;;;;;7.00;6.50;;;;;;;;;;5040840;28;20440;-81
2023/11/23 10:51:36;;;;;;;6.87;6.37;;;;;;;;;;5041735;28;20398;-81
2023/11/23 10:54:02;;;;;;;7.38;6.78;;;;;;;;;;5042388;28;20872;-80
2023/11/23 10:56:29;;;;;;;8.25;6.85;;;;;;;;;;5042576;28;20434;-80
2023/11/23 10:58:58;;;;;;;7.45;6.75;;;;;;;;;;5027491;28;20388;-81
2023/11/23 11:01:25;;;;;;;7.57;6.90;;;;;;;;;;5042245;28;20395;-81
2023/11/23 11:03:52;;;;;;;7.43;6.72;;;;;;;;;;5040198;28;20733;-80
2023/11/23 11:06:21;;;;;;;6.97;6.47;;;;;;;;;;5029516;28;20416;-81
2023/11/23 11:08:48;;;;;;;7.20;6.60;;;;;;;;;;5042705;28;20399;-80
2023/11/23 11:11:20;;;;;;;7.20;6.60;;;;;;;;;;5042672;28;20383;-80
2023/11/23 11:13:46;;;;;;;8.23;7.43;;;;;;;;;;5043098;28;20394;-80
2023/11/23 11:16:14;;;;;;;7.80;7.20;;;;;;;;;;5042428;28;20394;-80
2023/11/23 11:18:40;;;;;;;8.27;7.57;;;;;;;;;;5042791;28;20386;-80
2023/11/23 11:21:13;;;;;;;8.80;8.10;;;;;;;;;;5042163;28;20433;-80
2023/11/23 11:23:46;;;;;;;8.25;7.60;;;;;;;;;;5042016;28;20398;-80
2023/11/23 11:26:13;;;;;;;8.32;7.72;;;;;;;;;;5042232;28;20753;-80
2023/11/23 11:28:42;;;;;;;9.27;8.48;;;;;;;;;;5041712;28;20442;-80
2023/11/23 11:31:09;;;;;;;9.60;8.80;;;;;;;;;;5041349;28;20394;-80
2023/11/23 11:33:37;;;;;;;9.15;8.40;;;;;;;;;;5041495;28;20742;-80
2023/11/23 11:36:03;;;;;;;8.77;8.07;;;;;;;;;;5040540;28;20386;-80
2023/11/23 11:38:29;;;;;;;8.73;8.02;;;;;;;;;;5038845;28;20379;-79
2023/11/23 11:40:57;;;;;;;9.13;8.23;;;;;;;;;;5041301;28;20771;-80
2023/11/23 11:43:23;;;;;;;9.73;8.93;;;;;;;;;;5039249;28;20395;-82
2023/11/23 11:45:49;;;;;;;10.10;9.05;;;;;;;;;;5038945;28;20410;-79
2023/11/23 11:48:15;;;;;;;8.90;8.20;;;;;;;;;;5040899;28;20849;-82
2023/11/23 11:50:42;;;;;;;10.73;9.13;;;;;;;;;;5041414;28;20379;-81
2023/11/23 11:53:09;;;;;;;10.23;9.38;;;;;;;;;;5040811;28;20391;-80
2023/11/23 11:55:35;;;;;;;9.70;8.90;;;;;;;;;;5041159;28;20394;-80
2023/11/23 11:58:01;;;;;;;9.80;9.00;;;;;;;;;;5039690;28;20390;-81
2023/11/23 12:00:27;;;;;;;8.90;8.20;;;;;;;;;;5040978;28;20437;-80
2023/11/23 12:02:53;;;;;;;9.13;8.30;;;;;;;;;;5040232;28;20379;-80
2023/11/23 12:05:22;;;;;;;9.00;8.30;;;;;;;;;;5040122;28;20410;-80
2023/11/23 12:07:54;;;;;;;9.07;8.32;;;;;;;;;;5040719;28;20391;-80
2023/11/23 12:10:21;;;;;;;9.30;8.60;;;;;;;;;;5041448;28;20426;-80
2023/11/23 12:12:47;;;;;;;9.52;8.73;;;;;;;;;;5041151;28;20383;-80
2023/11/23 12:15:15;;;;;;;9.63;8.77;;;;;;;;;;5039163;28;20387;-80
2023/11/23 12:17:48;;;;;;;10.07;9.07;;;;;;;;;;5041150;28;20929;-80
2023/11/23 12:20:14;;;;;;;9.00;8.30;;;;;;;;;;5041017;28;20418;-80
2023/11/23 12:22:40;;;;;;;9.00;8.20;;;;;;;;;;5039998;28;20383;-80
2023/11/23 12:25:06;;;;;;;9.65;8.85;;;;;;;;;;5038971;28;20423;-81
2023/11/23 12:27:34;;;;;;;9.25;8.45;;;;;;;;;;5041163;28;20706;-80
2023/11/23 12:30:00;;;;;;;9.20;8.40;;;;;;;;;;5040809;28;20383;-80
2023/11/23 12:32:27;;;;;;;9.50;8.60;;;;;;;;;;5041425;28;20384;-82
2023/11/23 12:34:53;;;;;;;9.73;8.82;;;;;;;;;;5038869;28;20398;-79
2023/11/23 12:37:19;;;;;;;9.23;8.43;;;;;;;;;;5040538;28;20387;-80
2023/11/23 12:39:49;;;;;;;8.73;8.02;;;;;;;;;;5040266;28;20383;-79
2023/11/23 12:42:15;;;;;;;8.70;8.00;;;;;;;;;;5021878;28;20398;-79
2023/11/23 12:44:41;;;;;;;8.77;7.97;;;;;;;;;;5040552;28;20395;-79
2023/11/23 12:47:07;;;;;;;8.48;7.75;;;;;;;;;;5040996;28;20450;-79
2023/11/23 12:49:33;;;;;;;7.80;7.20;;;;;;;;;;5035501;28;20627;-79
2023/11/23 12:52:01;;;;;;;8.90;8.10;;;;;;;;;;5036310;28;20446;-82
2023/11/23 12:54:28;;;;;;;8.75;8.05;;;;;;;;;;5032641;28;20392;-79
2023/11/23 12:56:54;;;;;;;9.07;8.18;;;;;;;;;;5022082;28;20445;-82
2023/11/23 12:59:20;;;;;;;8.48;7.68;;;;;;;;;;5022663;28;20389;-82
2023/11/23 13:01:46;;;;;;;8.55;7.78;;;;;;;;;;5021636;28;20404;-79
2023/11/23 13:04:12;;;;;;;9.00;8.20;;;;;;;;;;5021912;28;20381;-79
2023/11/23 13:06:38;;;;;;;8.77;7.97;;;;;;;;;;5021031;28;20420;-81
2023/11/23 13:09:11;;;;;;;9.10;8.30;;;;;;;;;;5020588;28;20424;-79
2023/11/23 13:11:37;;;;;;;8.40;7.70;;;;;;;;;;5022020;28;20516;-80
2023/11/23 13:14:06;;;;;;;8.30;7.50;;;;;;;;;;5019481;28;20388;-80
2023/11/23 13:16:31;;;;;;;8.85;8.10;;;;;;;;;;5018616;28;20734;-80
2023/11/23 13:18:58;;;;;;;8.15;7.45;;;;;;;;;;5021257;28;20492;-80
2023/11/23 13:21:25;;;;;;;7.87;7.20;;;;;;;;;;5019833;28;20566;-80
2023/11/23 13:23:51;;;;;;;8.30;7.60;;;;;;;;;;5019964;28;20735;-79
2023/11/23 13:26:17;;;;;;;8.05;7.35;;;;;;;;;;5020061;28;20423;-80
2023/11/23 13:28:44;;;;;;;8.20;7.40;;;;;;;;;;5019557;28;20388;-82
2023/11/23 13:31:10;;;;;;;7.78;7.07;;;;;;;;;;5019814;28;20389;-79
2023/11/23 13:33:36;;;;;;;8.60;7.90;;;;;;;;;;5019283;28;20393;-82
2023/11/23 13:36:03;;;;;;;8.10;7.50;;;;;;;;;;5019293;28;20376;-82
2023/11/23 13:38:31;;;;;;;8.52;7.72;;;;;;;;;;5018969;28;20420;-82
2023/11/23 13:40:59;;;;;;;8.10;7.40;;;;;;;;;;5018364;28;20842;-82
2023/11/23 13:43:25;;;;;;;8.93;8.13;;;;;;;;;;5019412;28;20396;-82
2023/11/23 13:45:51;;;;;;;8.63;7.90;;;;;;;;;;5020176;28;20443;-82
2023/11/23 13:48:17;;;;;;;9.30;8.55;;;;;;;;;;5019040;28;20472;-82
2023/11/23 13:50:43;;;;;;;8.70;8.00;;;;;;;;;;5019351;28;20396;-82
2023/11/23 13:53:11;;;;;;;9.32;8.52;;;;;;;;;;5019900;28;20431;-82
2023/11/23 13:55:36;;;;;;;8.75;8.05;;;;;;;;;;5022244;28;20377;-82
2023/11/23 13:58:03;;;;;;;8.57;7.80;;;;;;;;;;5022768;28;20480;-82
2023/11/23 14:00:29;;;;;;;8.80;8.00;;;;;;;;;;5022208;28;20411;-82
2023/11/23 14:02:55;;;;;;;8.45;7.75;;;;;;;;;;5023487;28;20866;-82
2023/11/23 14:05:21;;;;;;;8.88;8.07;;;;;;;;;;5022959;28;20385;-80
2023/11/23 14:07:48;;;;;;;8.75;7.95;;;;;;;;;;5023601;28;20463;-80
2023/11/23 14:10:14;;;;;;;8.75;8.05;;;;;;;;;;5023446;28;20395;-80
2023/11/23 14:12:40;;;;;;;9.03;8.10;;;;;;;;;;5023211;28;20919;-80
2023/11/23 14:15:09;;;;;;;7.65;7.05;;;;;;;;;;5023162;28;20848;-80
2023/11/23 14:17:35;;;;;;;9.68;8.82;;;;;;;;;;5034635;28;20399;-80
2023/11/23 14:20:01;;;;;;;9.65;8.85;;;;;;;;;;5043533;28;20390;-80
2023/11/23 14:22:27;;;;;;;9.40;8.60;;;;;;;;;;5041909;28;20792;-80
2023/11/23 14:24:53;;;;;;;10.48;9.48;;;;;;;;;;5042924;28;20869;-80
2023/11/23 14:27:20;;;;;;;10.35;9.45;;;;;;;;;;5042422;28;20423;-80
2023/11/23 14:29:47;;;;;;;9.82;8.93;;;;;;;;;;5039949;28;20406;-80
2023/11/23 14:32:13;;;;;;;9.67;8.87;;;;;;;;;;5042417;28;20492;-81
2023/11/23 14:34:44;;;;;;;10.02;9.10;;;;;;;;;;5042024;28;20415;-81
2023/11/23 14:37:13;;;;;;;9.75;8.95;;;;;;;;;;5042731;28;20414;-81
2023/11/23 14:39:40;;;;;;;10.02;9.18;;;;;;;;;;5041310;28;20383;-81